KDED

Deland Municipal-Sidney H Taylor Field Airport

Deland, Florida, USA
METAR KDED 140835Z AUTO 14005KT 10SM CLR 19/17 A3003 RMK AO2 LTG DSNT W
Observed Flight Rules
Dec-14 @ 08:35 UTC (26 minutes ago) Visual Flight Rules
Wind Visibility Clouds
140° at 5 knots 10 miles
  • Clear skies
Temperatures Readings
Current 19°C / 66°F
Dewpoint 17°C / 63°F
Humidity 88%
Altimeter 30.03" Hg
Pressure 1017 hPa
Elevation 24
METAR KDED 140835Z AUTO 14005KT 10SM CLR 19/17 A3003 RMK AO2 LTG DSNT W
Observed Flight Rules
Dec-14 @ 08:35 UTC
(26 minutes ago)
VFR
Wind Visibility
140° at 5 knots 10 miles
Clouds
  • Clear skies
Temperature Dewpoint
19°C / 66°F 17°C / 63°F
Humidity Altimeter Pressure
88% 30.03" Hg 1017 hPa